Time;durP1;ratioP1;P1;durP2;ratioP2;P2;SDS_P1;SDS_P2;PMS_P1;PMS_P2;Temp;Humidity;BMP_temperature;BMP_pressure;BME280_temperature;BME280_humidity;BME280_pressure;Samples;Min_cycle;Max_cycle;Signal;HPM_P1;HPM_P2
2020/12/25 00:00:58;;;;;;;5.72;3.90;;;;;;;1.01;95.91;99037.16;1754632;81;21141;-79
2020/12/25 00:03:27;;;;;;;5.65;3.80;;;;;;;1.01;95.96;99039.76;1783876;80;21157;-79
2020/12/25 00:05:55;;;;;;;6.92;4.10;;;;;;;1.02;95.96;99038.86;1754608;81;21118;-79
2020/12/25 00:08:23;;;;;;;5.33;3.45;;;;;;;1.05;95.99;99032.77;1785537;80;21145;-78
2020/12/25 00:10:54;;;;;;;5.62;3.33;;;;;;;1.07;96.07;99018.49;1785576;80;21153;-78
2020/12/25 00:13:22;;;;;;;4.60;3.35;;;;;;;1.08;96.14;99017.59;1751804;79;21716;-77
2020/12/25 00:15:49;;;;;;;4.42;3.50;;;;;;;1.11;96.16;99018.86;1768951;81;21174;-78
2020/12/25 00:18:19;;;;;;;5.17;3.55;;;;;;;1.13;96.14;99006.70;1768519;80;21181;-78
2020/12/25 00:20:52;;;;;;;5.85;3.70;;;;;;;1.14;96.18;98980.75;1768738;81;21190;-76
2020/12/25 00:23:19;;;;;;;9.00;3.95;;;;;;;1.12;96.26;98982.52;1768821;81;21601;-76
2020/12/25 00:25:47;;;;;;;5.47;3.05;;;;;;;1.15;96.25;98989.38;1738186;82;21613;-77
2020/12/25 00:28:15;;;;;;;4.78;3.12;;;;;;;1.15;96.22;98986.79;1768812;81;21585;-78
2020/12/25 00:30:43;;;;;;;3.27;2.40;;;;;;;1.17;96.27;98982.44;1768658;81;21150;-77
2020/12/25 00:33:13;;;;;;;3.90;3.12;;;;;;;1.18;96.17;98991.95;1712073;80;21374;-64
2020/12/25 00:35:42;;;;;;;5.03;3.35;;;;;;;1.18;96.24;99003.61;1715540;83;21172;-64
2020/12/25 00:38:11;;;;;;;5.80;3.33;;;;;;;1.22;96.18;99006.12;1685998;85;21567;-64
2020/12/25 00:40:43;;;;;;;5.75;3.15;;;;;;;1.22;96.09;99006.55;1715710;82;21605;-63
2020/12/25 00:43:14;;;;;;;4.72;3.52;;;;;;;1.24;96.18;99019.05;1714477;83;21223;-64
2020/12/25 00:45:41;;;;;;;5.85;3.52;;;;;;;1.26;96.15;99009.51;1714434;83;21307;-63
2020/12/25 00:48:09;;;;;;;6.10;3.40;;;;;;;1.26;96.31;99001.73;1700041;83;21146;-64
2020/12/25 00:50:38;;;;;;;5.55;3.35;;;;;;;1.29;96.26;99009.89;1684640;85;21215;-64
2020/12/25 00:53:07;;;;;;;5.00;3.67;;;;;;;1.30;96.37;99012.47;1685646;83;21194;-63
2020/12/25 00:55:35;;;;;;;5.10;3.58;;;;;;;1.35;96.32;99014.98;1685689;84;21159;-63
2020/12/25 00:58:04;;;;;;;6.10;3.85;;;;;;;1.37;96.26;98998.50;1684420;85;22108;-64
2020/12/25 01:00:31;;;;;;;8.28;3.62;;;;;;;1.35;96.29;98989.89;1651212;86;21670;-63
2020/12/25 01:02:59;;;;;;;8.58;3.80;;;;;;;1.42;96.25;98994.08;1657512;86;21184;-63
2020/12/25 01:05:27;;;;;;;4.45;3.15;;;;;;;1.42;96.22;98978.52;1651147;86;21195;-63
2020/12/25 01:07:55;;;;;;;3.67;2.80;;;;;;;1.44;96.19;98976.75;1702144;84;21196;-64
2020/12/25 01:10:24;;;;;;;4.58;3.37;;;;;;;1.50;96.24;98971.06;1660293;82;22703;-64
2020/12/25 01:12:51;;;;;;;4.65;3.15;;;;;;;1.53;96.20;98972.30;1648714;86;21963;-64
2020/12/25 01:15:19;;;;;;;8.58;4.03;;;;;;;1.53;96.09;98969.25;1662612;84;21622;-62
2020/12/25 01:17:47;;;;;;;6.37;2.87;;;;;;;1.55;96.09;98958.40;1648564;86;21717;-63
2020/12/25 01:20:14;;;;;;;5.15;3.37;;;;;;;1.59;95.99;98963.10;1662508;84;21646;-63
2020/12/25 01:22:42;;;;;;;5.95;3.72;;;;;;;1.60;95.94;98953.12;1702322;84;21402;-63
2020/12/25 01:25:10;;;;;;;7.40;3.52;;;;;;;1.61;95.91;98949.63;1668555;84;22257;-64
2020/12/25 01:27:37;;;;;;;5.00;3.15;;;;;;;1.61;95.97;98947.91;1670030;85;21647;-65
2020/12/25 01:30:07;;;;;;;4.12;2.67;;;;;;;1.63;95.95;98942.67;1648739;86;21706;-64
2020/12/25 01:32:35;;;;;;;6.25;2.85;;;;;;;1.63;95.92;98929.70;1663670;84;21634;-64
2020/12/25 01:35:04;;;;;;;4.75;2.80;;;;;;;1.64;96.01;98936.61;1711614;83;23506;-63
2020/12/25 01:37:32;;;;;;;5.85;3.33;;;;;;;1.66;96.08;98932.25;1711307;82;22326;-65
2020/12/25 01:40:00;;;;;;;4.80;2.50;;;;;;;1.68;96.02;98926.14;1711395;82;21228;-64
2020/12/25 01:42:28;;;;;;;4.22;3.00;;;;;;;1.70;95.99;98929.98;1725175;82;21610;-65
2020/12/25 01:44:56;;;;;;;4.92;2.98;;;;;;;1.70;95.99;98933.87;1740072;82;21103;-63
2020/12/25 01:47:24;;;;;;;4.42;2.60;;;;;;;1.74;96.05;98935.53;1739834;82;21354;-65
2020/12/25 01:49:52;;;;;;;4.12;2.65;;;;;;;1.74;96.00;98939.42;1736032;82;22003;-65
2020/12/25 01:52:20;;;;;;;2.42;2.10;;;;;;;1.76;96.04;98931.16;1731131;82;21156;-64
2020/12/25 01:54:50;;;;;;;4.30;2.80;;;;;;;1.81;96.14;98943.59;1731115;82;21152;-64
2020/12/25 01:57:17;;;;;;;3.75;2.50;;;;;;;1.80;96.20;98939.30;1712336;82;21152;-65
2020/12/25 01:59:45;;;;;;;5.22;2.50;;;;;;;1.83;96.19;98937.94;1731300;82;21422;-64
2020/12/25 02:02:13;;;;;;;3.90;2.20;;;;;;;1.83;96.29;98945.72;1731182;82;21172;-63
2020/12/25 02:04:43;;;;;;;4.12;2.60;;;;;;;1.87;96.29;98939.59;1730315;82;21140;-63
2020/12/25 02:07:11;;;;;;;3.90;2.72;;;;;;;1.88;96.37;98930.89;1712607;82;21928;-65
2020/12/25 02:09:40;;;;;;;4.80;3.33;;;;;;;1.88;96.51;98936.09;1731313;82;22279;-64
2020/12/25 02:13:56;;;;;;;6.47;4.00;;;;;;;1.98;96.59;98925.51;1805128;79;22313;-64
2020/12/25 02:16:25;;;;;;;5.78;3.08;;;;;;;1.93;96.75;98929.95;1755972;81;21666;-63
2020/12/25 02:18:53;;;;;;;6.05;3.40;;;;;;;1.95;96.74;98928.19;1756077;81;21506;-65
2020/12/25 02:21:20;;;;;;;7.45;4.20;;;;;;;1.92;96.87;98920.47;1755901;81;21206;-64
2020/12/25 02:23:48;;;;;;;5.87;3.72;;;;;;;1.98;97.08;98925.51;1756013;81;21406;-64
2020/12/25 02:26:16;;;;;;;8.85;3.92;;;;;;;1.99;96.95;98919.45;1756021;81;21186;-64
2020/12/25 02:28:44;;;;;;;10.38;4.30;;;;;;;1.99;97.06;98920.74;1756096;80;21170;-65
2020/12/25 02:31:14;;;;;;;7.10;4.55;;;;;;;2.01;97.31;98925.47;1727072;81;21339;-62
2020/12/25 02:33:42;;;;;;;6.13;4.57;;;;;;;2.02;97.28;98919.37;1714940;83;21233;-64
2020/12/25 02:36:10;;;;;;;7.30;4.05;;;;;;;2.02;97.26;98905.09;1686286;85;21682;-63
2020/12/25 02:38:38;;;;;;;9.35;5.42;;;;;;;2.01;97.44;98913.78;1686442;85;21263;-64
2020/12/25 02:41:06;;;;;;;9.15;4.50;;;;;;;2.04;97.59;98918.89;1686402;84;21251;-62
2020/12/25 02:43:34;;;;;;;9.80;5.45;;;;;;;2.05;97.54;98906.34;1686508;85;21648;-63
2020/12/25 02:46:05;;;;;;;9.05;5.53;;;;;;;2.08;97.53;98912.75;1686480;83;21203;-63
2020/12/25 02:48:33;;;;;;;10.23;5.70;;;;;;;2.10;97.62;98914.88;1686564;85;22531;-63
2020/12/25 02:51:01;;;;;;;12.15;7.20;;;;;;;2.11;97.60;98910.08;1718218;83;21767;-63
2020/12/25 02:53:29;;;;;;;11.90;7.37;;;;;;;2.11;97.60;98904.88;1720762;83;21319;-64
2020/12/25 02:55:57;;;;;;;15.50;9.05;;;;;;;2.14;97.67;98911.33;1720932;83;22295;-64
2020/12/25 02:58:25;;;;;;;20.12;9.90;;;;;;;2.14;97.68;98919.12;1720676;83;21215;-62
2020/12/25 03:00:53;;;;;;;21.65;11.53;;;;;;;2.15;97.81;98920.81;1720880;82;21728;-64
2020/12/25 03:03:21;;;;;;;20.02;12.63;;;;;;;2.17;97.98;98908.66;1720562;83;21672;-62
2020/12/25 03:05:49;;;;;;;19.75;11.88;;;;;;;2.18;98.05;98907.75;1723652;81;21241;-65
2020/12/25 03:08:16;;;;;;;21.10;11.95;;;;;;;2.19;98.15;98910.77;1755662;80;21383;-64
2020/12/25 03:10:44;;;;;;;22.50;13.20;;;;;;;2.20;98.13;98911.17;1755889;81;21159;-64
2020/12/25 03:13:14;;;;;;;24.02;13.18;;;;;;;2.26;98.07;98912.80;1751274;80;21234;-63
2020/12/25 03:15:56;;;;;;;22.13;13.80;;;;;;;2.31;98.09;98921.33;1844094;76;22718;-64
2020/12/25 03:18:24;;;;;;;26.05;14.47;;;;;;;2.27;98.08;98902.34;1815908;78;21485;-63
2020/12/25 03:20:51;;;;;;;25.50;14.23;;;;;;;2.28;98.15;98898.88;1816084;78;21370;-64
2020/12/25 03:23:19;;;;;;;23.05;12.88;;;;;;;2.30;98.16;98902.30;1815907;79;21240;-64
2020/12/25 03:25:46;;;;;;;20.65;12.33;;;;;;;2.33;98.10;98910.91;1816099;79;21586;-64
2020/12/25 03:28:13;;;;;;;23.60;12.90;;;;;;;2.34;98.14;98911.30;1784203;79;21645;-64
2020/12/25 03:30:41;;;;;;;27.85;14.13;;;;;;;2.36;98.30;98918.63;1781892;78;21187;-64
2020/12/25 03:33:09;;;;;;;24.43;11.95;;;;;;;2.39;98.43;98923.73;1780207;79;22638;-64
2020/12/25 03:35:39;;;;;;;29.27;12.70;;;;;;;2.40;98.47;98920.27;1777941;80;21223;-64
2020/12/25 03:38:07;;;;;;;24.25;12.70;;;;;;;2.41;98.40;98916.77;1780392;80;21602;-63
2020/12/25 03:40:35;;;;;;;24.20;12.40;;;;;;;2.44;98.42;98911.48;1780150;80;21238;-63
2020/12/25 03:43:02;;;;;;;23.27;11.08;;;;;;;2.44;98.37;98920.16;1780319;80;21195;-63
2020/12/25 03:45:32;;;;;;;28.27;14.75;;;;;;;2.45;98.36;98927.05;1780296;80;22207;-63
2020/12/25 03:48:01;;;;;;;21.45;12.10;;;;;;;2.45;98.42;98924.91;1780014;80;21207;-62
2020/12/25 03:50:29;;;;;;;25.30;12.47;;;;;;;2.45;98.40;98933.55;1781410;80;21172;-64
2020/12/25 03:52:57;;;;;;;28.90;13.48;;;;;;;2.47;98.43;98935.67;1781648;80;21133;-63
2020/12/25 03:55:24;;;;;;;26.17;12.20;;;;;;;2.50;98.45;98939.94;1781678;80;21204;-64
2020/12/25 03:57:52;;;;;;;30.30;13.93;;;;;;;2.52;98.37;98927.31;1781732;80;23498;-62
2020/12/25 04:00:20;;;;;;;26.82;12.37;;;;;;;2.54;98.43;98933.78;1781568;80;21192;-64
2020/12/25 04:02:48;;;;;;;23.50;11.57;;;;;;;2.58;98.43;98923.73;1781703;80;22172;-64
2020/12/25 04:05:18;;;;;;;27.52;12.55;;;;;;;2.62;98.30;98921.48;1781747;79;21128;-64
2020/12/25 04:07:45;;;;;;;27.42;12.75;;;;;;;2.62;98.26;98917.58;1781964;80;21572;-63
2020/12/25 04:10:13;;;;;;;26.37;13.55;;;;;;;2.62;98.28;98917.58;1781848;80;22243;-65
2020/12/25 04:12:41;;;;;;;23.62;11.20;;;;;;;2.64;98.34;98917.06;1781703;80;21161;-64
2020/12/25 04:15:13;;;;;;;28.30;12.78;;;;;;;2.65;98.34;98913.59;1788330;80;21654;-64
2020/12/25 04:17:40;;;;;;;28.10;13.62;;;;;;;2.65;98.35;98914.89;1793513;80;21199;-64
2020/12/25 04:20:08;;;;;;;35.43;15.03;;;;;;;2.69;98.32;98901.36;1793587;79;21654;-63
2020/12/25 04:22:37;;;;;;;60.05;19.10;;;;;;;2.70;98.35;98907.83;1793546;80;21810;-64
2020/12/25 04:25:05;;;;;;;47.75;18.25;;;;;;;2.73;98.32;98912.94;1793421;79;21622;-64
2020/12/25 04:27:35;;;;;;;34.98;15.45;;;;;;;2.75;98.23;98916.81;1757549;79;21186;-63
2020/12/25 04:30:04;;;;;;;34.95;15.23;;;;;;;2.73;98.16;98927.24;1753426;81;21210;-64
2020/12/25 04:32:31;;;;;;;38.02;15.95;;;;;;;2.75;98.21;98932.87;1753166;80;21262;-64
2020/12/25 04:34:59;;;;;;;39.05;16.17;;;;;;;2.77;98.18;98935.83;1753412;81;21592;-63
2020/12/25 04:37:28;;;;;;;31.85;15.32;;;;;;;2.79;98.17;98938.41;1753198;80;21653;-63
2020/12/25 04:39:56;;;;;;;35.15;15.98;;;;;;;2.81;98.20;98939.23;1753525;81;21172;-63
2020/12/25 04:42:26;;;;;;;37.17;16.32;;;;;;;2.85;98.19;98936.52;1753360;80;21612;-64
2020/12/25 04:44:54;;;;;;;32.95;15.93;;;;;;;2.88;98.19;98925.18;1753668;81;21185;-63
2020/12/25 04:47:22;;;;;;;37.53;16.20;;;;;;;2.91;98.18;98919.89;1753252;80;21723;-62
2020/12/25 04:49:50;;;;;;;33.18;15.65;;;;;;;2.96;98.12;98922.38;1695649;82;21256;-63
2020/12/25 04:52:18;;;;;;;34.88;16.35;;;;;;;2.99;98.11;98929.66;1707252;82;21716;-63
2020/12/25 04:54:47;;;;;;;38.08;16.42;;;;;;;3.00;98.16;98932.66;1731474;81;21205;-62
2020/12/25 04:57:15;;;;;;;41.68;18.42;;;;;;;3.05;98.03;98928.19;1731428;82;21600;-63
2020/12/25 04:59:42;;;;;;;39.08;18.98;;;;;;;3.09;98.00;98927.22;1756289;80;21411;-63
2020/12/25 05:02:10;;;;;;;40.78;19.32;;;;;;;3.12;98.00;98928.89;1768437;79;21173;-62
2020/12/25 05:04:39;;;;;;;38.23;16.17;;;;;;;3.14;97.99;98929.25;1768866;81;21166;-63
2020/12/25 05:07:07;;;;;;;45.08;18.90;;;;;;;3.20;97.95;98936.06;1768532;79;21192;-62
2020/12/25 05:09:34;;;;;;;51.33;22.93;;;;;;;3.22;97.54;98945.10;1768974;81;21604;-63
2020/12/25 05:12:02;;;;;;;44.08;20.30;;;;;;;3.22;97.54;98945.10;1768828;79;21375;-63
2020/12/25 05:14:34;;;;;;;59.23;27.55;;;;;;;3.19;97.60;98944.73;1765780;81;21209;-63
2020/12/25 05:17:02;;;;;;;55.55;24.37;;;;;;;3.17;97.63;98939.17;1752421;81;21190;-64
2020/12/25 05:19:31;;;;;;;40.28;20.20;;;;;;;3.24;97.50;98945.92;1743828;81;21428;-62
2020/12/25 05:22:00;;;;;;;41.25;19.98;;;;;;;3.24;97.50;98945.92;1752256;81;21158;-62
2020/12/25 05:24:38;;;;;;;37.25;19.32;;;;;;;3.24;97.60;98961.53;1752151;80;22352;-62
2020/12/25 05:27:13;;;;;;;36.88;18.25;;;;;;;3.25;97.66;98968.46;1752236;81;22233;-63
2020/12/25 05:29:41;;;;;;;44.77;22.65;;;;;;;3.24;97.47;98970.64;1752296;81;21260;-64
2020/12/25 05:32:09;;;;;;;40.58;20.62;;;;;;;3.23;97.31;98970.25;1752099;81;21178;-63
2020/12/25 05:34:37;;;;;;;46.75;23.15;;;;;;;3.21;97.45;98960.32;1752098;81;21642;-63
2020/12/25 05:37:07;;;;;;;38.13;18.67;;;;;;;3.18;97.22;98967.77;1752267;81;21448;-62
2020/12/25 05:39:37;;;;;;;50.15;23.62;;;;;;;3.17;97.49;98964.73;1752009;81;21177;-63
2020/12/25 05:42:07;;;;;;;48.02;22.75;;;;;;;3.17;97.49;98964.73;1752088;81;21194;-63
2020/12/25 05:44:49;;;;;;;48.98;24.25;;;;;;;3.17;97.24;98968.64;1752001;81;21222;-63
2020/12/25 05:47:17;;;;;;;45.45;22.85;;;;;;;3.15;97.29;98968.70;1752073;81;21174;-62
2020/12/25 05:49:45;;;;;;;48.70;21.62;;;;;;;3.17;97.32;98986.00;1763745;80;21386;-62
2020/12/25 05:52:13;;;;;;;45.30;22.93;;;;;;;3.18;97.25;99003.34;1736941;76;21827;-63
2020/12/25 05:54:43;;;;;;;47.73;21.50;;;;;;;3.20;97.27;98995.02;1739856;82;21208;-62
2020/12/25 05:57:13;;;;;;;47.38;22.35;;;;;;;3.21;97.33;98990.24;1715950;82;21686;-63
2020/12/25 05:59:43;;;;;;;49.73;22.60;;;;;;;3.24;97.39;99005.77;1716194;82;22332;-63
2020/12/25 06:02:12;;;;;;;41.80;20.45;;;;;;;3.25;97.45;98998.38;1740231;82;21196;-63
2020/12/25 06:04:40;;;;;;;45.30;21.93;;;;;;;3.29;97.37;99004.77;1740161;82;21228;-63
2020/12/25 06:07:11;;;;;;;42.95;19.73;;;;;;;3.31;97.33;99010.80;1740077;81;21321;-64
2020/12/25 06:09:41;;;;;;;46.75;22.42;;;;;;;3.33;97.33;99010.73;1737742;82;21209;-62
2020/12/25 06:12:10;;;;;;;53.98;25.55;;;;;;;3.32;97.38;99015.55;1685092;85;21186;-63
2020/12/25 06:14:38;;;;;;;47.70;21.75;;;;;;;3.34;97.32;99012.46;1693576;83;21223;-64
2020/12/25 06:17:11;;;;;;;51.20;23.47;;;;;;;3.35;97.23;99015.45;1684971;83;21236;-62
2020/12/25 06:19:49;;;;;;;51.92;24.35;;;;;;;3.34;97.31;99013.31;1717336;83;21218;-62
2020/12/25 06:22:23;;;;;;;51.50;24.47;;;;;;;3.37;97.29;99022.78;1684775;85;21208;-63
2020/12/25 06:24:51;;;;;;;52.43;24.67;;;;;;;3.39;97.28;99018.40;1717185;82;21706;-64
2020/12/25 06:27:23;;;;;;;55.95;25.77;;;;;;;3.38;97.16;99027.08;1661868;85;21351;-63
2020/12/25 06:29:56;;;;;;;51.23;24.92;;;;;;;3.38;97.22;99032.28;1694112;83;21658;-63
2020/12/25 06:32:24;;;;;;;51.50;23.77;;;;;;;3.40;97.18;99021.39;1684769;85;21587;-64
2020/12/25 06:34:55;;;;;;;45.33;22.62;;;;;;;3.42;97.17;99018.31;1716992;82;21227;-63
2020/12/25 06:37:29;;;;;;;48.05;23.73;;;;;;;3.42;97.17;99018.31;1685101;84;21685;-62
2020/12/25 06:40:05;;;;;;;55.88;27.00;;;;;;;3.45;97.18;99024.76;1675735;85;22389;-62
2020/12/25 06:42:36;;;;;;;63.90;29.48;;;;;;;3.51;97.35;99031.09;1713850;82;21242;-64
2020/12/25 06:45:07;;;;;;;65.35;30.40;;;;;;;3.56;97.06;99042.23;1721198;82;21172;-63
2020/12/25 06:47:37;;;;;;;57.55;27.65;;;;;;;3.56;97.06;99042.23;1712826;82;21221;-63
2020/12/25 06:50:14;;;;;;;56.90;26.90;;;;;;;3.60;97.04;99044.77;1719212;82;21166;-63
2020/12/25 06:52:56;;;;;;;56.18;26.23;;;;;;;3.59;96.94;99036.12;1731152;82;21438;-63
2020/12/25 06:55:24;;;;;;;50.65;24.67;;;;;;;3.63;96.78;99052.49;1730878;82;22080;-62
2020/12/25 06:57:55;;;;;;;59.73;27.45;;;;;;;3.67;96.44;99054.13;1731285;82;21842;-66
2020/12/25 07:00:24;;;;;;;58.20;27.02;;;;;;;3.67;96.44;99054.13;1782192;80;21190;-65
2020/12/25 07:02:52;;;;;;;60.15;28.57;;;;;;;3.70;96.56;99060.55;1781509;80;22114;-65
2020/12/25 07:05:19;;;;;;;62.88;26.35;;;;;;;3.72;96.60;99063.97;1782501;80;21198;-65
2020/12/25 07:07:49;;;;;;;57.40;26.27;;;;;;;3.74;96.64;99064.79;1712747;80;21194;-66
2020/12/25 07:10:17;;;;;;;66.02;30.97;;;;;;;3.74;96.64;99066.09;1776824;80;21146;-64
2020/12/25 07:12:45;;;;;;;64.75;32.90;;;;;;;3.73;96.19;99065.23;1782304;80;21202;-65
2020/12/25 07:15:13;;;;;;;71.42;34.18;;;;;;;3.74;96.52;99069.55;1735560;80;21671;-66
2020/12/25 07:17:41;;;;;;;70.05;32.17;;;;;;;3.76;96.50;99074.27;1731556;82;21239;-65
2020/12/25 07:20:09;;;;;;;73.52;34.38;;;;;;;3.78;96.37;99082.05;1733763;82;21203;-65
2020/12/25 07:22:37;;;;;;;71.10;33.33;;;;;;;3.81;96.56;99074.14;1731189;82;21290;-65
2020/12/25 07:25:09;;;;;;;74.05;31.77;;;;;;;3.83;96.32;99071.51;1705110;82;21651;-65
2020/12/25 07:27:37;;;;;;;70.28;33.83;;;;;;;3.84;96.36;99084.47;1703005;82;21189;-65
2020/12/25 07:30:07;;;;;;;64.45;31.93;;;;;;;3.88;96.45;99090.02;1748562;81;21209;-65
2020/12/25 07:32:35;;;;;;;78.60;35.23;;;;;;;3.90;96.37;99083.47;1730257;82;22319;-66
2020/12/25 07:35:05;;;;;;;68.75;33.13;;;;;;;3.96;96.50;99097.19;1678481;82;21724;-66
2020/12/25 07:37:33;;;;;;;74.03;33.80;;;;;;;3.96;96.50;99097.19;1730553;82;22050;-65
2020/12/25 07:40:06;;;;;;;84.70;34.78;;;;;;;3.98;96.28;99107.13;1783133;80;21193;-65
2020/12/25 07:42:34;;;;;;;93.40;39.42;;;;;;;3.98;96.28;99107.13;1773417;80;21361;-65
2020/12/25 07:45:02;;;;;;;90.60;40.92;;;;;;;3.97;96.11;99101.49;1747757;81;21229;-65
2020/12/25 07:47:30;;;;;;;72.65;33.83;;;;;;;4.01;96.09;99103.58;1745766;80;21196;-65
2020/12/25 07:50:00;;;;;;;85.80;36.17;;;;;;;4.04;96.11;99111.76;1757487;78;21193;-64
2020/12/25 07:52:28;;;;;;;99.67;35.88;;;;;;;4.03;96.00;99113.97;1757535;80;21198;-66
2020/12/25 07:54:58;;;;;;;74.47;33.85;;;;;;;4.04;95.66;99121.73;1762340;80;21909;-65
2020/12/25 07:57:31;;;;;;;76.50;32.10;;;;;;;4.04;95.66;99121.73;1749464;81;21645;-67
2020/12/25 08:00:04;;;;;;;95.30;38.33;;;;;;;4.07;95.88;99123.39;1687855;79;21199;-74
2020/12/25 08:02:32;;;;;;;100.55;39.92;;;;;;;4.05;95.77;99119.97;1706685;82;22055;-75
2020/12/25 08:05:01;;;;;;;108.60;38.33;;;;;;;4.06;95.80;99126.91;1699285;83;21219;-77
2020/12/25 08:07:30;;;;;;;96.90;39.40;;;;;;;4.06;95.75;99131.66;1706392;83;21195;-78
2020/12/25 08:10:00;;;;;;;79.05;34.65;;;;;;;4.05;95.67;99127.78;1701184;83;21231;-75
2020/12/25 08:12:27;;;;;;;75.10;34.03;;;;;;;4.05;95.67;99127.78;1700744;83;21216;-78
2020/12/25 08:14:55;;;;;;;67.30;33.92;;;;;;;4.09;95.86;99132.87;1708630;82;21243;-76
2020/12/25 08:17:23;;;;;;;67.12;31.07;;;;;;;4.09;95.86;99132.87;1717739;80;21581;-66
2020/12/25 08:19:51;;;;;;;65.80;31.17;;;;;;;4.11;95.62;99130.23;1781861;80;21656;-65
2020/12/25 08:22:19;;;;;;;65.17;31.05;;;;;;;4.15;95.58;99135.78;1766612;80;21883;-65
2020/12/25 08:24:46;;;;;;;61.33;27.65;;;;;;;4.20;95.61;99140.41;1729880;81;21207;-65
2020/12/25 08:27:17;;;;;;;60.33;29.27;;;;;;;4.24;95.62;99130.78;1729581;81;21200;-66
2020/12/25 08:29:44;;;;;;;64.72;31.20;;;;;;;4.27;95.69;99131.53;1713960;82;21467;-65
2020/12/25 08:32:26;;;;;;;67.20;30.48;;;;;;;4.32;95.46;99129.64;1729830;82;22664;-65
2020/12/25 08:35:14;;;;;;;59.30;30.17;;;;;;;4.37;95.26;99127.79;1752493;81;21249;-77
2020/12/25 08:37:58;;;;;;;74.82;35.48;;;;;;;4.44;95.08;99124.98;1753121;81;21442;-75
2020/12/25 08:40:32;;;;;;;66.75;31.02;;;;;;;4.48;94.55;99137.90;1752964;81;21179;-77
2020/12/25 08:43:09;;;;;;;70.67;32.20;;;;;;;4.50;94.50;99142.63;1747157;81;21701;-76
2020/12/25 08:45:39;;;;;;;71.33;29.65;;;;;;;4.55;94.38;99140.73;1752923;81;21241;-76
2020/12/25 08:48:11;;;;;;;68.80;32.67;;;;;;;4.59;94.29;99146.73;1760695;78;22002;-66
2020/12/25 08:50:40;;;;;;;88.78;37.67;;;;;;;4.67;94.20;99146.08;1786784;78;21144;-66
2020/12/25 08:53:20;;;;;;;85.17;37.55;;;;;;;4.71;94.18;99139.84;1787360;78;21220;-65
2020/12/25 08:55:50;;;;;;;91.08;39.03;;;;;;;4.84;93.95;99138.59;1786988;80;21204;-66
2020/12/25 08:58:22;;;;;;;92.65;40.43;;;;;;;4.97;93.71;99134.31;1786497;80;21440;-67
2020/12/25 09:01:00;;;;;;;108.45;44.27;;;;;;;5.07;93.16;99135.76;1770798;80;21167;-66
2020/12/25 09:03:42;;;;;;;110.08;44.35;;;;;;;5.19;93.07;99135.37;1767664;80;33576;-65
2020/12/25 09:06:11;;;;;;;93.82;38.88;;;;;;;5.42;92.42;99139.02;1747729;80;21207;-67
2020/12/25 09:08:39;;;;;;;88.35;37.33;;;;;;;5.64;92.13;99140.50;1721520;82;21215;-66
2020/12/25 09:11:14;;;;;;;67.20;33.45;;;;;;;5.71;91.29;99142.47;1748328;82;22262;-66
2020/12/25 09:13:41;;;;;;;64.50;29.00;;;;;;;5.64;90.35;99143.96;1748085;82;21204;-66
2020/12/25 09:16:10;;;;;;;57.73;27.75;;;;;;;5.53;89.80;99140.84;1748047;82;21619;-67
2020/12/25 09:18:42;;;;;;;53.68;26.93;;;;;;;5.41;89.62;99136.87;1748284;82;21112;-67
2020/12/25 09:21:14;;;;;;;47.65;23.40;;;;;;;5.30;89.66;99145.95;1748283;82;21188;-65
2020/12/25 09:23:41;;;;;;;50.88;25.77;;;;;;;5.22;90.26;99144.44;1748485;82;22633;-65
2020/12/25 09:26:15;;;;;;;41.98;22.60;;;;;;;5.16;90.64;99149.83;1746530;82;21722;-65
2020/12/25 09:28:45;;;;;;;41.58;21.55;;;;;;;5.09;90.10;99146.16;1748341;82;21623;-66
2020/12/25 09:31:13;;;;;;;40.63;21.12;;;;;;;5.02;90.03;99146.79;1747894;82;21184;-67
2020/12/25 09:33:42;;;;;;;35.17;17.85;;;;;;;5.02;90.03;99138.50;1747957;82;21223;-65
2020/12/25 09:36:11;;;;;;;29.63;18.32;;;;;;;5.08;90.17;99130.92;1737617;80;21237;-77
2020/12/25 09:38:48;;;;;;;31.50;16.57;;;;;;;5.34;90.20;99125.37;1832883;76;24707;-76
2020/12/25 09:41:16;;;;;;;29.32;16.37;;;;;;;5.78;90.50;99133.05;1783644;79;21167;-76
2020/12/25 09:43:43;;;;;;;30.80;16.87;;;;;;;6.43;89.91;99133.01;1785010;79;21371;-76
2020/12/25 09:46:11;;;;;;;25.80;14.95;;;;;;;7.12;85.69;99140.05;1804738;79;21610;-76
2020/12/25 09:48:41;;;;;;;25.60;15.58;;;;;;;7.76;85.61;99141.41;1790914;79;21653;-76
2020/12/25 09:51:09;;;;;;;27.32;15.93;;;;;;;8.18;80.96;99140.51;1715774;80;21286;-67
2020/12/25 09:53:37;;;;;;;25.23;13.65;;;;;;;8.33;80.19;99139.48;1710424;82;21232;-68
2020/12/25 09:56:05;;;;;;;25.43;15.05;;;;;;;8.39;76.88;99132.63;1725952;83;22288;-69
2020/12/25 09:58:33;;;;;;;32.73;16.17;;;;;;;8.24;76.68;99135.94;1733719;81;21210;-68
2020/12/25 10:01:02;;;;;;;29.90;16.45;;;;;;;8.15;76.32;99131.47;1732492;82;21194;-67
2020/12/25 10:03:30;;;;;;;31.55;17.10;;;;;;;8.18;75.69;99124.77;1705012;82;24109;-68
2020/12/25 10:05:58;;;;;;;26.12;16.75;;;;;;;8.26;76.56;99130.14;1673489;84;21214;-67
2020/12/25 10:08:26;;;;;;;36.83;18.30;;;;;;;8.33;77.35;99121.11;1693218;81;21414;-69
2020/12/25 10:10:54;;;;;;;41.35;19.45;;;;;;;8.50;76.01;99115.98;1700526;84;21245;-68
2020/12/25 10:13:22;;;;;;;35.03;19.57;;;;;;;8.87;75.44;99104.28;1701093;84;21234;-68
2020/12/25 10:15:52;;;;;;;45.25;22.70;;;;;;;9.12;72.65;99106.14;1701198;84;21249;-68
2020/12/25 10:18:20;;;;;;;72.40;25.08;;;;;;;9.14;71.91;99104.77;1701152;82;21257;-69
2020/12/25 10:20:48;;;;;;;39.13;21.87;;;;;;;9.17;72.32;99108.55;1701360;84;22299;-69
2020/12/25 10:23:15;;;;;;;48.20;22.90;;;;;;;9.28;71.72;99112.83;1701210;82;21684;-69
2020/12/25 10:25:43;;;;;;;44.53;22.82;;;;;;;9.23;70.97;99106.95;1700927;84;21221;-68
2020/12/25 10:28:12;;;;;;;52.03;23.85;;;;;;;9.22;72.29;99101.30;1700813;82;21238;-69
2020/12/25 10:30:40;;;;;;;56.42;22.93;;;;;;;9.20;70.79;99108.39;1690680;84;21273;-68
2020/12/25 10:33:07;;;;;;;47.75;23.85;;;;;;;9.12;71.69;99112.70;1650416;86;21437;-69
2020/12/25 10:35:35;;;;;;;54.35;25.62;;;;;;;9.17;70.85;99111.17;1650486;86;21226;-69
2020/12/25 10:38:04;;;;;;;66.85;27.95;;;;;;;9.15;69.89;99102.05;1650650;85;21222;-68
2020/12/25 10:40:31;;;;;;;61.75;29.27;;;;;;;9.26;71.07;99100.23;1650667;86;21162;-68
2020/12/25 10:42:59;;;;;;;57.93;24.27;;;;;;;9.45;68.57;99098.87;1664653;84;21189;-68
2020/12/25 10:45:27;;;;;;;54.45;23.75;;;;;;;9.66;68.74;99096.95;1677719;84;22163;-69
2020/12/25 10:47:55;;;;;;;56.48;23.62;;;;;;;9.76;68.64;99103.48;1678250;84;21217;-68
2020/12/25 10:50:22;;;;;;;45.70;22.32;;;;;;;9.79;66.29;99102.00;1675391;84;21637;-68
2020/12/25 10:52:50;;;;;;;39.83;21.27;;;;;;;9.78;67.33;99109.98;1683277;84;21208;-67
2020/12/25 10:55:17;;;;;;;43.78;20.95;;;;;;;9.81;66.11;99106.72;1679093;85;21158;-68
2020/12/25 10:57:45;;;;;;;49.25;21.57;;;;;;;10.00;65.69;99120.25;1679299;83;21755;-70
2020/12/25 11:00:13;;;;;;;48.63;21.05;;;;;;;10.17;66.15;99126.84;1677896;85;21237;-68
2020/12/25 11:02:40;;;;;;;39.65;18.90;;;;;;;10.29;66.81;99102.54;1675956;83;21716;-67
2020/12/25 11:05:08;;;;;;;42.95;19.23;;;;;;;10.60;66.30;99123.76;1687086;83;21195;-69
2020/12/25 11:07:36;;;;;;;39.25;17.45;;;;;;;10.85;66.97;99116.71;1681781;84;21223;-68
2020/12/25 11:10:04;;;;;;;29.12;16.95;;;;;;;11.03;65.44;99124.92;1652224;85;21452;-71
2020/12/25 11:12:32;;;;;;;30.75;16.77;;;;;;;11.09;65.67;99134.30;1679333;84;21166;-69
2020/12/25 11:15:00;;;;;;;25.45;14.65;;;;;;;11.20;64.56;99145.54;1679315;84;21194;-69
2020/12/25 11:17:28;;;;;;;28.42;15.98;;;;;;;10.93;63.55;99142.19;1679105;84;21228;-70
2020/12/25 11:19:56;;;;;;;28.92;16.30;;;;;;;10.61;65.08;99143.44;1679248;85;21208;-69
2020/12/25 11:22:23;;;;;;;28.30;15.08;;;;;;;10.41;66.39;99152.84;1678637;85;22123;-70
2020/12/25 11:24:51;;;;;;;23.15;13.40;;;;;;;10.21;68.22;99152.03;1674695;83;21262;-72
2020/12/25 11:27:19;;;;;;;22.22;14.60;;;;;;;10.02;66.89;99142.92;1673686;81;21192;-69
2020/12/25 11:29:47;;;;;;;20.72;13.10;;;;;;;9.79;68.09;99146.70;1660969;84;21687;-70
2020/12/25 11:32:15;;;;;;;30.08;16.42;;;;;;;9.53;68.06;99148.45;1658619;84;21679;-69
2020/12/25 11:34:42;;;;;;;29.23;17.45;;;;;;;9.01;67.83;99144.72;1684337;82;21386;-70
2020/12/25 11:37:10;;;;;;;27.40;15.13;;;;;;;8.58;69.61;99155.87;1699939;84;21206;-68
2020/12/25 11:39:38;;;;;;;24.92;13.55;;;;;;;8.23;70.69;99164.38;1699700;84;21170;-68